sensor_id;sensor_type;location;lat;lon;timestamp;temperature;humidity
14061;DHT22;7105;43.616;1.434;2023-02-01T00:00:14;8.30;99.90
14061;DHT22;7105;43.616;1.434;2023-02-01T00:02:40;8.30;99.90
14061;DHT22;7105;43.616;1.434;2023-02-01T00:05:10;8.30;99.90
14061;DHT22;7105;43.616;1.434;2023-02-01T00:07:37;8.30;99.90
14061;DHT22;7105;43.616;1.434;2023-02-01T00:10:04;8.30;99.90
14061;DHT22;7105;43.616;1.434;2023-02-01T00:12:31;8.30;99.90
14061;DHT22;7105;43.616;1.434;2023-02-01T00:14:57;8.30;99.90
14061;DHT22;7105;43.616;1.434;2023-02-01T00:17:23;8.30;99.90
14061;DHT22;7105;43.616;1.434;2023-02-01T00:19:48;8.30;99.90
14061;DHT22;7105;43.616;1.434;2023-02-01T00:22:14;8.30;99.90
14061;DHT22;7105;43.616;1.434;2023-02-01T00:24:40;8.30;99.90
14061;DHT22;7105;43.616;1.434;2023-02-01T00:27:05;8.30;99.90
14061;DHT22;7105;43.616;1.434;2023-02-01T00:29:31;8.30;99.90
14061;DHT22;7105;43.616;1.434;2023-02-01T00:31:57;8.30;99.90
14061;DHT22;7105;43.616;1.434;2023-02-01T00:34:23;8.30;99.90
14061;DHT22;7105;43.616;1.434;2023-02-01T00:36:49;8.30;99.90
14061;DHT22;7105;43.616;1.434;2023-02-01T00:39:15;8.30;99.90
14061;DHT22;7105;43.616;1.434;2023-02-01T00:41:41;8.30;99.90
14061;DHT22;7105;43.616;1.434;2023-02-01T00:44:07;8.30;99.90
14061;DHT22;7105;43.616;1.434;2023-02-01T00:46:32;8.30;99.90
14061;DHT22;7105;43.616;1.434;2023-02-01T00:48:58;8.30;99.90
14061;DHT22;7105;43.616;1.434;2023-02-01T00:51:26;8.30;99.90
14061;DHT22;7105;43.616;1.434;2023-02-01T00:53:52;8.30;99.90
14061;DHT22;7105;43.616;1.434;2023-02-01T00:56:19;8.30;99.90
14061;DHT22;7105;43.616;1.434;2023-02-01T00:58:44;8.30;99.90
14061;DHT22;7105;43.616;1.434;2023-02-01T01:01:12;8.30;99.90
14061;DHT22;7105;43.616;1.434;2023-02-01T01:03:40;8.30;99.90
14061;DHT22;7105;43.616;1.434;2023-02-01T01:06:09;8.20;99.90
14061;DHT22;7105;43.616;1.434;2023-02-01T01:08:35;8.20;99.90
14061;DHT22;7105;43.616;1.434;2023-02-01T01:11:10;8.20;99.90
14061;DHT22;7105;43.616;1.434;2023-02-01T01:13:36;8.20;99.90
14061;DHT22;7105;43.616;1.434;2023-02-01T01:16:03;8.20;99.90
14061;DHT22;7105;43.616;1.434;2023-02-01T01:18:30;8.20;99.90
14061;DHT22;7105;43.616;1.434;2023-02-01T01:20:56;8.20;99.90
14061;DHT22;7105;43.616;1.434;2023-02-01T01:23:22;8.20;99.90
14061;DHT22;7105;43.616;1.434;2023-02-01T01:25:48;8.20;99.90
14061;DHT22;7105;43.616;1.434;2023-02-01T01:28:14;8.10;99.90
14061;DHT22;7105;43.616;1.434;2023-02-01T01:30:40;8.20;99.90
14061;DHT22;7105;43.616;1.434;2023-02-01T01:33:05;8.20;99.90
14061;DHT22;7105;43.616;1.434;2023-02-01T01:35:32;8.20;99.90
14061;DHT22;7105;43.616;1.434;2023-02-01T01:37:58;8.20;99.90
14061;DHT22;7105;43.616;1.434;2023-02-01T01:40:24;8.20;99.90
14061;DHT22;7105;43.616;1.434;2023-02-01T01:42:50;8.20;99.90
14061;DHT22;7105;43.616;1.434;2023-02-01T01:45:31;8.20;99.90
14061;DHT22;7105;43.616;1.434;2023-02-01T01:48:01;8.20;99.90
14061;DHT22;7105;43.616;1.434;2023-02-01T01:50:35;8.20;99.90
14061;DHT22;7105;43.616;1.434;2023-02-01T01:53:03;8.20;99.90
14061;DHT22;7105;43.616;1.434;2023-02-01T01:55:34;8.20;99.90
14061;DHT22;7105;43.616;1.434;2023-02-01T01:58:07;8.20;99.90
14061;DHT22;7105;43.616;1.434;2023-02-01T02:00:34;8.10;99.90
14061;DHT22;7105;43.616;1.434;2023-02-01T02:03:22;8.10;99.90
14061;DHT22;7105;43.616;1.434;2023-02-01T02:05:50;8.10;99.90
14061;DHT22;7105;43.616;1.434;2023-02-01T02:08:18;8.00;99.90
14061;DHT22;7105;43.616;1.434;2023-02-01T02:10:47;8.00;99.90
14061;DHT22;7105;43.616;1.434;2023-02-01T02:13:48;8.00;99.90
14061;DHT22;7105;43.616;1.434;2023-02-01T02:16:37;8.00;99.90
14061;DHT22;7105;43.616;1.434;2023-02-01T02:19:23;8.00;99.90
14061;DHT22;7105;43.616;1.434;2023-02-01T02:36:06;7.90;99.90
14061;DHT22;7105;43.616;1.434;2023-02-01T02:41:33;7.90;99.90
14061;DHT22;7105;43.616;1.434;2023-02-01T02:47:36;7.90;99.90
14061;DHT22;7105;43.616;1.434;2023-02-01T02:50:17;7.90;99.90
14061;DHT22;7105;43.616;1.434;2023-02-01T02:53:07;7.80;99.90
14061;DHT22;7105;43.616;1.434;2023-02-01T02:55:54;7.80;99.90
14061;DHT22;7105;43.616;1.434;2023-02-01T02:58:41;7.80;99.90
14061;DHT22;7105;43.616;1.434;2023-02-01T03:01:26;7.80;99.90
14061;DHT22;7105;43.616;1.434;2023-02-01T03:04:11;7.90;99.90
14061;DHT22;7105;43.616;1.434;2023-02-01T03:06:43;7.80;99.90
14061;DHT22;7105;43.616;1.434;2023-02-01T03:09:31;7.80;99.90
14061;DHT22;7105;43.616;1.434;2023-02-01T03:12:06;7.80;99.90
14061;DHT22;7105;43.616;1.434;2023-02-01T03:14:56;7.80;99.90
14061;DHT22;7105;43.616;1.434;2023-02-01T03:17:29;7.80;99.90
14061;DHT22;7105;43.616;1.434;2023-02-01T03:19:59;7.90;99.90
14061;DHT22;7105;43.616;1.434;2023-02-01T03:22:28;7.90;99.90
14061;DHT22;7105;43.616;1.434;2023-02-01T03:25:06;7.80;99.90
14061;DHT22;7105;43.616;1.434;2023-02-01T03:27:37;7.90;99.90
14061;DHT22;7105;43.616;1.434;2023-02-01T03:30:26;7.90;99.90
14061;DHT22;7105;43.616;1.434;2023-02-01T03:32:58;7.90;99.90
14061;DHT22;7105;43.616;1.434;2023-02-01T03:38:01;7.90;99.90
14061;DHT22;7105;43.616;1.434;2023-02-01T03:40:33;7.90;99.90
14061;DHT22;7105;43.616;1.434;2023-02-01T03:43:02;7.90;99.90
14061;DHT22;7105;43.616;1.434;2023-02-01T03:45:34;8.00;99.90
14061;DHT22;7105;43.616;1.434;2023-02-01T03:48:03;8.00;99.90
14061;DHT22;7105;43.616;1.434;2023-02-01T03:50:30;8.00;99.90
14061;DHT22;7105;43.616;1.434;2023-02-01T03:53:12;8.00;99.90
14061;DHT22;7105;43.616;1.434;2023-02-01T03:55:41;8.00;99.90
14061;DHT22;7105;43.616;1.434;2023-02-01T03:58:13;8.10;99.90
14061;DHT22;7105;43.616;1.434;2023-02-01T04:00:40;8.00;99.90
14061;DHT22;7105;43.616;1.434;2023-02-01T04:03:06;8.00;99.90
14061;DHT22;7105;43.616;1.434;2023-02-01T04:05:33;8.00;99.90
14061;DHT22;7105;43.616;1.434;2023-02-01T04:07:59;8.00;99.90
14061;DHT22;7105;43.616;1.434;2023-02-01T04:10:25;8.00;99.90
14061;DHT22;7105;43.616;1.434;2023-02-01T04:12:50;8.10;99.90
14061;DHT22;7105;43.616;1.434;2023-02-01T04:15:16;8.10;99.90
14061;DHT22;7105;43.616;1.434;2023-02-01T04:17:42;8.10;99.90
14061;DHT22;7105;43.616;1.434;2023-02-01T04:20:08;8.10;99.90
14061;DHT22;7105;43.616;1.434;2023-02-01T04:22:34;8.10;99.90
14061;DHT22;7105;43.616;1.434;2023-02-01T04:25:00;8.10;99.90
14061;DHT22;7105;43.616;1.434;2023-02-01T04:27:25;8.10;99.90
14061;DHT22;7105;43.616;1.434;2023-02-01T04:29:51;8.10;99.90
14061;DHT22;7105;43.616;1.434;2023-02-01T04:32:17;8.10;99.90
14061;DHT22;7105;43.616;1.434;2023-02-01T04:34:43;8.10;99.90
14061;DHT22;7105;43.616;1.434;2023-02-01T04:37:09;8.10;99.90
14061;DHT22;7105;43.616;1.434;2023-02-01T04:39:34;8.10;99.90
14061;DHT22;7105;43.616;1.434;2023-02-01T04:42:00;8.10;99.90
14061;DHT22;7105;43.616;1.434;2023-02-01T04:44:26;8.10;99.90
14061;DHT22;7105;43.616;1.434;2023-02-01T04:46:51;8.00;99.90
14061;DHT22;7105;43.616;1.434;2023-02-01T04:49:17;8.00;99.90
14061;DHT22;7105;43.616;1.434;2023-02-01T04:51:43;8.00;99.90
14061;DHT22;7105;43.616;1.434;2023-02-01T04:54:09;8.10;99.90
14061;DHT22;7105;43.616;1.434;2023-02-01T04:56:38;8.10;99.90
14061;DHT22;7105;43.616;1.434;2023-02-01T04:59:04;8.10;99.90
14061;DHT22;7105;43.616;1.434;2023-02-01T05:01:30;8.10;99.90
14061;DHT22;7105;43.616;1.434;2023-02-01T05:03:56;8.10;99.90
14061;DHT22;7105;43.616;1.434;2023-02-01T05:06:22;8.10;99.90
14061;DHT22;7105;43.616;1.434;2023-02-01T05:08:48;8.10;99.90
14061;DHT22;7105;43.616;1.434;2023-02-01T05:11:14;8.20;99.90
14061;DHT22;7105;43.616;1.434;2023-02-01T05:13:59;8.10;99.90
14061;DHT22;7105;43.616;1.434;2023-02-01T05:16:25;8.10;99.90
14061;DHT22;7105;43.616;1.434;2023-02-01T05:18:51;8.10;99.90
14061;DHT22;7105;43.616;1.434;2023-02-01T05:21:17;8.10;99.90
14061;DHT22;7105;43.616;1.434;2023-02-01T05:23:43;8.10;99.90
14061;DHT22;7105;43.616;1.434;2023-02-01T05:26:27;8.10;99.90
14061;DHT22;7105;43.616;1.434;2023-02-01T05:28:53;8.10;99.90
14061;DHT22;7105;43.616;1.434;2023-02-01T05:31:19;8.10;99.90
14061;DHT22;7105;43.616;1.434;2023-02-01T05:33:45;8.10;99.90
14061;DHT22;7105;43.616;1.434;2023-02-01T05:36:10;8.10;99.90
14061;DHT22;7105;43.616;1.434;2023-02-01T05:38:36;8.00;99.90
14061;DHT22;7105;43.616;1.434;2023-02-01T05:41:02;8.10;99.90
14061;DHT22;7105;43.616;1.434;2023-02-01T05:43:27;8.10;99.90
14061;DHT22;7105;43.616;1.434;2023-02-01T05:45:53;8.10;99.90
14061;DHT22;7105;43.616;1.434;2023-02-01T05:48:19;8.10;99.90
14061;DHT22;7105;43.616;1.434;2023-02-01T05:50:45;8.10;99.90
14061;DHT22;7105;43.616;1.434;2023-02-01T05:53:11;8.10;99.90
14061;DHT22;7105;43.616;1.434;2023-02-01T05:55:37;8.00;99.90
14061;DHT22;7105;43.616;1.434;2023-02-01T05:58:03;8.00;99.90
14061;DHT22;7105;43.616;1.434;2023-02-01T06:00:30;8.00;99.90
14061;DHT22;7105;43.616;1.434;2023-02-01T06:02:55;8.00;99.90
14061;DHT22;7105;43.616;1.434;2023-02-01T06:05:21;8.00;99.90
14061;DHT22;7105;43.616;1.434;2023-02-01T06:07:47;8.00;99.90
14061;DHT22;7105;43.616;1.434;2023-02-01T06:10:15;8.00;99.90
14061;DHT22;7105;43.616;1.434;2023-02-01T06:12:41;8.00;99.90
14061;DHT22;7105;43.616;1.434;2023-02-01T06:15:07;8.00;99.90
14061;DHT22;7105;43.616;1.434;2023-02-01T06:17:33;8.00;99.90
14061;DHT22;7105;43.616;1.434;2023-02-01T06:19:59;8.00;99.90
14061;DHT22;7105;43.616;1.434;2023-02-01T06:22:24;8.00;99.90
14061;DHT22;7105;43.616;1.434;2023-02-01T06:24:50;8.00;99.90
14061;DHT22;7105;43.616;1.434;2023-02-01T06:27:16;8.00;99.90
14061;DHT22;7105;43.616;1.434;2023-02-01T06:29:42;8.00;99.90
14061;DHT22;7105;43.616;1.434;2023-02-01T06:32:07;8.00;99.90
14061;DHT22;7105;43.616;1.434;2023-02-01T06:34:34;8.00;99.90
14061;DHT22;7105;43.616;1.434;2023-02-01T06:37:00;8.00;99.90
14061;DHT22;7105;43.616;1.434;2023-02-01T06:39:25;8.00;99.90
14061;DHT22;7105;43.616;1.434;2023-02-01T06:41:52;7.90;99.90
14061;DHT22;7105;43.616;1.434;2023-02-01T06:44:18;7.90;99.90
14061;DHT22;7105;43.616;1.434;2023-02-01T06:46:44;7.90;99.90
14061;DHT22;7105;43.616;1.434;2023-02-01T06:49:09;8.00;99.90
14061;DHT22;7105;43.616;1.434;2023-02-01T06:51:35;8.00;99.90
14061;DHT22;7105;43.616;1.434;2023-02-01T06:54:01;8.00;99.90
14061;DHT22;7105;43.616;1.434;2023-02-01T06:56:27;8.00;99.90
14061;DHT22;7105;43.616;1.434;2023-02-01T06:58:53;8.00;99.90
14061;DHT22;7105;43.616;1.434;2023-02-01T07:01:19;8.00;99.90
14061;DHT22;7105;43.616;1.434;2023-02-01T07:03:51;8.00;99.90
14061;DHT22;7105;43.616;1.434;2023-02-01T07:06:17;7.90;99.90
14061;DHT22;7105;43.616;1.434;2023-02-01T07:08:43;7.90;99.90
14061;DHT22;7105;43.616;1.434;2023-02-01T07:11:11;7.90;99.90
14061;DHT22;7105;43.616;1.434;2023-02-01T07:13:37;7.90;99.90
14061;DHT22;7105;43.616;1.434;2023-02-01T07:16:05;7.90;99.90
14061;DHT22;7105;43.616;1.434;2023-02-01T07:18:32;7.80;99.90
14061;DHT22;7105;43.616;1.434;2023-02-01T07:20:58;7.90;99.90
14061;DHT22;7105;43.616;1.434;2023-02-01T07:23:24;7.80;99.90
14061;DHT22;7105;43.616;1.434;2023-02-01T07:25:55;7.70;99.90
14061;DHT22;7105;43.616;1.434;2023-02-01T07:28:21;7.60;99.90
14061;DHT22;7105;43.616;1.434;2023-02-01T07:30:47;7.50;99.90
14061;DHT22;7105;43.616;1.434;2023-02-01T07:33:21;7.50;99.90
14061;DHT22;7105;43.616;1.434;2023-02-01T07:35:47;7.50;99.90
14061;DHT22;7105;43.616;1.434;2023-02-01T07:38:14;7.40;99.90
14061;DHT22;7105;43.616;1.434;2023-02-01T07:40:40;7.40;99.90
14061;DHT22;7105;43.616;1.434;2023-02-01T07:43:05;7.30;99.90
14061;DHT22;7105;43.616;1.434;2023-02-01T07:45:35;7.20;99.90
14061;DHT22;7105;43.616;1.434;2023-02-01T07:48:01;7.30;99.90
14061;DHT22;7105;43.616;1.434;2023-02-01T07:50:27;7.20;99.90
14061;DHT22;7105;43.616;1.434;2023-02-01T07:52:53;7.20;99.90
14061;DHT22;7105;43.616;1.434;2023-02-01T07:55:19;7.30;99.90
14061;DHT22;7105;43.616;1.434;2023-02-01T07:57:45;7.40;99.90
14061;DHT22;7105;43.616;1.434;2023-02-01T08:00:11;7.30;99.90
14061;DHT22;7105;43.616;1.434;2023-02-01T08:03:16;7.30;99.90
14061;DHT22;7105;43.616;1.434;2023-02-01T08:05:42;7.40;99.90
14061;DHT22;7105;43.616;1.434;2023-02-01T08:08:07;7.60;99.90
14061;DHT22;7105;43.616;1.434;2023-02-01T08:10:33;7.80;99.90
14061;DHT22;7105;43.616;1.434;2023-02-01T08:13:01;7.90;99.90
14061;DHT22;7105;43.616;1.434;2023-02-01T08:15:27;7.80;99.90
14061;DHT22;7105;43.616;1.434;2023-02-01T08:17:53;7.50;99.90
14061;DHT22;7105;43.616;1.434;2023-02-01T08:20:22;7.50;99.90
14061;DHT22;7105;43.616;1.434;2023-02-01T08:22:51;7.80;99.90
14061;DHT22;7105;43.616;1.434;2023-02-01T08:25:17;7.90;99.90
14061;DHT22;7105;43.616;1.434;2023-02-01T08:27:43;7.60;99.90
14061;DHT22;7105;43.616;1.434;2023-02-01T08:30:11;7.60;99.90
14061;DHT22;7105;43.616;1.434;2023-02-01T08:32:37;7.60;99.90
14061;DHT22;7105;43.616;1.434;2023-02-01T08:35:06;8.00;99.90
14061;DHT22;7105;43.616;1.434;2023-02-01T08:37:34;8.10;99.90
14061;DHT22;7105;43.616;1.434;2023-02-01T08:40:00;8.00;99.90
14061;DHT22;7105;43.616;1.434;2023-02-01T08:42:26;7.80;99.90
14061;DHT22;7105;43.616;1.434;2023-02-01T08:45:10;8.00;99.90
14061;DHT22;7105;43.616;1.434;2023-02-01T08:47:36;8.00;99.90
14061;DHT22;7105;43.616;1.434;2023-02-01T08:50:03;7.80;99.90
14061;DHT22;7105;43.616;1.434;2023-02-01T08:52:29;7.80;99.90
14061;DHT22;7105;43.616;1.434;2023-02-01T08:54:55;7.90;99.90
14061;DHT22;7105;43.616;1.434;2023-02-01T08:57:20;8.10;99.90
14061;DHT22;7105;43.616;1.434;2023-02-01T08:59:46;8.50;99.90
14061;DHT22;7105;43.616;1.434;2023-02-01T09:02:13;8.20;99.90
14061;DHT22;7105;43.616;1.434;2023-02-01T09:04:40;8.00;99.90
14061;DHT22;7105;43.616;1.434;2023-02-01T09:07:06;8.20;99.90
14061;DHT22;7105;43.616;1.434;2023-02-01T09:09:32;8.20;99.90
14061;DHT22;7105;43.616;1.434;2023-02-01T09:11:57;8.70;99.90
14061;DHT22;7105;43.616;1.434;2023-02-01T09:14:23;8.40;99.90
14061;DHT22;7105;43.616;1.434;2023-02-01T09:16:49;8.00;99.90
14061;DHT22;7105;43.616;1.434;2023-02-01T09:19:16;7.90;99.90
14061;DHT22;7105;43.616;1.434;2023-02-01T09:21:42;9.40;99.90
14061;DHT22;7105;43.616;1.434;2023-02-01T09:24:10;10.60;99.90
14061;DHT22;7105;43.616;1.434;2023-02-01T09:26:36;9.90;99.90
14061;DHT22;7105;43.616;1.434;2023-02-01T09:29:02;8.80;99.90
14061;DHT22;7105;43.616;1.434;2023-02-01T09:31:29;8.70;99.90
14061;DHT22;7105;43.616;1.434;2023-02-01T09:33:56;9.70;99.90
14061;DHT22;7105;43.616;1.434;2023-02-01T09:36:21;12.10;99.90
14061;DHT22;7105;43.616;1.434;2023-02-01T09:38:49;10.70;99.90
14061;DHT22;7105;43.616;1.434;2023-02-01T09:41:32;9.80;99.90
14061;DHT22;7105;43.616;1.434;2023-02-01T09:47:15;9.30;99.90
14061;DHT22;7105;43.616;1.434;2023-02-01T09:49:58;9.70;99.90
14061;DHT22;7105;43.616;1.434;2023-02-01T09:52:42;9.10;99.90
14061;DHT22;7105;43.616;1.434;2023-02-01T09:55:46;8.60;99.90
14061;DHT22;7105;43.616;1.434;2023-02-01T09:58:33;8.70;99.90
14061;DHT22;7105;43.616;1.434;2023-02-01T10:01:02;8.90;99.90
14061;DHT22;7105;43.616;1.434;2023-02-01T10:03:31;8.80;99.90
14061;DHT22;7105;43.616;1.434;2023-02-01T10:20:02;8.50;99.90
14061;DHT22;7105;43.616;1.434;2023-02-01T10:25:55;8.70;99.90
14061;DHT22;7105;43.616;1.434;2023-02-01T10:28:22;8.80;99.90
14061;DHT22;7105;43.616;1.434;2023-02-01T10:30:56;8.30;99.90
14061;DHT22;7105;43.616;1.434;2023-02-01T10:33:34;8.10;99.90
14061;DHT22;7105;43.616;1.434;2023-02-01T10:36:15;8.20;99.90
14061;DHT22;7105;43.616;1.434;2023-02-01T10:38:43;8.70;99.90
14061;DHT22;7105;43.616;1.434;2023-02-01T10:41:16;8.70;99.90
14061;DHT22;7105;43.616;1.434;2023-02-01T10:43:43;8.40;99.90
14061;DHT22;7105;43.616;1.434;2023-02-01T10:46:10;8.60;99.90
14061;DHT22;7105;43.616;1.434;2023-02-01T10:48:38;9.10;99.90
14061;DHT22;7105;43.616;1.434;2023-02-01T10:51:14;9.00;99.90
14061;DHT22;7105;43.616;1.434;2023-02-01T10:53:54;9.00;99.90
14061;DHT22;7105;43.616;1.434;2023-02-01T10:56:23;8.70;99.90
14061;DHT22;7105;43.616;1.434;2023-02-01T10:58:49;9.00;99.90
14061;DHT22;7105;43.616;1.434;2023-02-01T11:01:22;9.00;99.90
14061;DHT22;7105;43.616;1.434;2023-02-01T11:03:57;9.40;99.90
14061;DHT22;7105;43.616;1.434;2023-02-01T11:06:38;9.30;99.90
14061;DHT22;7105;43.616;1.434;2023-02-01T11:16:53;9.60;99.90
14061;DHT22;7105;43.616;1.434;2023-02-01T11:19:19;9.00;99.90
14061;DHT22;7105;43.616;1.434;2023-02-01T11:21:49;8.70;99.90
14061;DHT22;7105;43.616;1.434;2023-02-01T11:24:27;8.80;99.90
14061;DHT22;7105;43.616;1.434;2023-02-01T11:26:56;9.30;99.90
14061;DHT22;7105;43.616;1.434;2023-02-01T11:29:23;9.70;99.90
14061;DHT22;7105;43.616;1.434;2023-02-01T11:31:57;9.40;99.90
14061;DHT22;7105;43.616;1.434;2023-02-01T11:34:30;9.00;99.90
14061;DHT22;7105;43.616;1.434;2023-02-01T11:37:00;9.30;99.90
14061;DHT22;7105;43.616;1.434;2023-02-01T11:39:34;9.20;99.90
14061;DHT22;7105;43.616;1.434;2023-02-01T11:42:04;8.90;99.90
14061;DHT22;7105;43.616;1.434;2023-02-01T11:44:36;9.00;99.90
14061;DHT22;7105;43.616;1.434;2023-02-01T11:47:30;8.90;99.90
14061;DHT22;7105;43.616;1.434;2023-02-01T11:50:01;9.70;99.90
14061;DHT22;7105;43.616;1.434;2023-02-01T11:58:46;9.30;99.90
14061;DHT22;7105;43.616;1.434;2023-02-01T12:06:54;9.20;99.90
14061;DHT22;7105;43.616;1.434;2023-02-01T12:12:32;9.60;99.90
14061;DHT22;7105;43.616;1.434;2023-02-01T12:26:31;9.50;99.90
14061;DHT22;7105;43.616;1.434;2023-02-01T12:35:08;9.30;99.90
14061;DHT22;7105;43.616;1.434;2023-02-01T12:41:35;9.80;99.90
14061;DHT22;7105;43.616;1.434;2023-02-01T12:50:14;9.90;99.90
14061;DHT22;7105;43.616;1.434;2023-02-01T12:52:16;9.90;99.90
14061;DHT22;7105;43.616;1.434;2023-02-01T12:54:46;9.60;99.90
14061;DHT22;7105;43.616;1.434;2023-02-01T12:57:25;9.30;99.90
14061;DHT22;7105;43.616;1.434;2023-02-01T13:05:21;9.70;99.90
14061;DHT22;7105;43.616;1.434;2023-02-01T13:08:02;9.50;99.90
14061;DHT22;7105;43.616;1.434;2023-02-01T13:14:16;9.60;99.90
14061;DHT22;7105;43.616;1.434;2023-02-01T13:21:49;9.30;99.90
14061;DHT22;7105;43.616;1.434;2023-02-01T13:24:42;9.50;99.90
14061;DHT22;7105;43.616;1.434;2023-02-01T13:27:15;9.80;99.90
14061;DHT22;7105;43.616;1.434;2023-02-01T13:33:22;9.30;99.90
14061;DHT22;7105;43.616;1.434;2023-02-01T13:35:46;9.10;99.90
14061;DHT22;7105;43.616;1.434;2023-02-01T13:43:40;8.90;99.90
14061;DHT22;7105;43.616;1.434;2023-02-01T13:46:10;8.70;99.90
14061;DHT22;7105;43.616;1.434;2023-02-01T13:49:01;8.90;99.90
14061;DHT22;7105;43.616;1.434;2023-02-01T13:51:45;9.40;99.90
14061;DHT22;7105;43.616;1.434;2023-02-01T13:54:43;9.30;99.90
14061;DHT22;7105;43.616;1.434;2023-02-01T13:57:37;9.00;99.90
14061;DHT22;7105;43.616;1.434;2023-02-01T14:00:23;9.10;99.90
14061;DHT22;7105;43.616;1.434;2023-02-01T14:08:11;9.10;99.90
14061;DHT22;7105;43.616;1.434;2023-02-01T14:10:48;8.90;99.90
14061;DHT22;7105;43.616;1.434;2023-02-01T14:13:40;9.20;99.90
14061;DHT22;7105;43.616;1.434;2023-02-01T14:16:13;9.50;99.90
14061;DHT22;7105;43.616;1.434;2023-02-01T14:21:32;8.90;99.90
14061;DHT22;7105;43.616;1.434;2023-02-01T14:29:18;9.10;99.90
14061;DHT22;7105;43.616;1.434;2023-02-01T14:56:04;9.30;99.90
14061;DHT22;7105;43.616;1.434;2023-02-01T15:01:00;9.20;99.90
14061;DHT22;7105;43.616;1.434;2023-02-01T15:08:46;8.90;99.90
14061;DHT22;7105;43.616;1.434;2023-02-01T15:11:15;8.70;99.90
14061;DHT22;7105;43.616;1.434;2023-02-01T15:13:52;9.00;99.90
14061;DHT22;7105;43.616;1.434;2023-02-01T15:16:21;9.20;99.90
14061;DHT22;7105;43.616;1.434;2023-02-01T15:18:48;8.90;99.90
14061;DHT22;7105;43.616;1.434;2023-02-01T15:21:23;8.80;99.90
14061;DHT22;7105;43.616;1.434;2023-02-01T15:23:49;8.80;99.90
14061;DHT22;7105;43.616;1.434;2023-02-01T15:26:29;9.20;99.90
14061;DHT22;7105;43.616;1.434;2023-02-01T15:28:59;9.40;99.90
14061;DHT22;7105;43.616;1.434;2023-02-01T15:31:37;9.00;99.90
14061;DHT22;7105;43.616;1.434;2023-02-01T15:34:03;8.80;99.90
14061;DHT22;7105;43.616;1.434;2023-02-01T15:36:29;8.70;99.90
14061;DHT22;7105;43.616;1.434;2023-02-01T15:39:24;9.10;99.90
14061;DHT22;7105;43.616;1.434;2023-02-01T15:41:58;9.30;99.90
14061;DHT22;7105;43.616;1.434;2023-02-01T15:44:33;9.10;99.90
14061;DHT22;7105;43.616;1.434;2023-02-01T15:47:04;8.80;99.90
14061;DHT22;7105;43.616;1.434;2023-02-01T15:49:35;8.90;99.90
14061;DHT22;7105;43.616;1.434;2023-02-01T15:52:03;9.20;99.90
14061;DHT22;7105;43.616;1.434;2023-02-01T15:54:32;9.10;99.90
14061;DHT22;7105;43.616;1.434;2023-02-01T15:57:02;8.90;99.90
14061;DHT22;7105;43.616;1.434;2023-02-01T15:59:47;8.80;99.90
14061;DHT22;7105;43.616;1.434;2023-02-01T16:02:35;9.10;99.90
14061;DHT22;7105;43.616;1.434;2023-02-01T16:05:04;9.30;99.90
14061;DHT22;7105;43.616;1.434;2023-02-01T16:07:32;9.00;99.90
14061;DHT22;7105;43.616;1.434;2023-02-01T16:10:00;8.90;99.90
14061;DHT22;7105;43.616;1.434;2023-02-01T16:15:04;9.10;99.90
14061;DHT22;7105;43.616;1.434;2023-02-01T16:17:30;9.20;99.90
14061;DHT22;7105;43.616;1.434;2023-02-01T16:19:57;9.00;99.90
14061;DHT22;7105;43.616;1.434;2023-02-01T16:22:23;8.90;99.90
14061;DHT22;7105;43.616;1.434;2023-02-01T16:24:49;8.80;99.90
14061;DHT22;7105;43.616;1.434;2023-02-01T16:27:15;9.10;99.90
14061;DHT22;7105;43.616;1.434;2023-02-01T16:29:40;9.20;99.90
14061;DHT22;7105;43.616;1.434;2023-02-01T16:32:26;8.90;99.90
14061;DHT22;7105;43.616;1.434;2023-02-01T16:34:52;8.70;99.90
14061;DHT22;7105;43.616;1.434;2023-02-01T16:37:23;8.80;99.90
14061;DHT22;7105;43.616;1.434;2023-02-01T16:39:49;9.00;99.90
14061;DHT22;7105;43.616;1.434;2023-02-01T16:42:16;9.20;99.90
14061;DHT22;7105;43.616;1.434;2023-02-01T16:44:42;9.00;99.90
14061;DHT22;7105;43.616;1.434;2023-02-01T16:47:21;8.80;99.90
14061;DHT22;7105;43.616;1.434;2023-02-01T16:49:48;8.80;99.90
14061;DHT22;7105;43.616;1.434;2023-02-01T16:52:25;9.00;99.90
14061;DHT22;7105;43.616;1.434;2023-02-01T16:54:51;9.10;99.90
14061;DHT22;7105;43.616;1.434;2023-02-01T16:57:19;9.40;99.90
14061;DHT22;7105;43.616;1.434;2023-02-01T16:59:48;8.70;99.90
14061;DHT22;7105;43.616;1.434;2023-02-01T17:02:18;8.70;99.90
14061;DHT22;7105;43.616;1.434;2023-02-01T17:04:45;8.90;99.90
14061;DHT22;7105;43.616;1.434;2023-02-01T17:07:13;8.90;99.90
14061;DHT22;7105;43.616;1.434;2023-02-01T17:09:39;8.60;99.90
14061;DHT22;7105;43.616;1.434;2023-02-01T17:12:05;8.40;99.90
14061;DHT22;7105;43.616;1.434;2023-02-01T17:14:36;8.40;99.90
14061;DHT22;7105;43.616;1.434;2023-02-01T17:17:04;8.50;99.90
14061;DHT22;7105;43.616;1.434;2023-02-01T17:19:32;8.60;99.90
14061;DHT22;7105;43.616;1.434;2023-02-01T17:21:57;8.30;99.90
14061;DHT22;7105;43.616;1.434;2023-02-01T17:24:30;8.20;99.90
14061;DHT22;7105;43.616;1.434;2023-02-01T17:26:55;8.10;99.90
14061;DHT22;7105;43.616;1.434;2023-02-01T17:29:22;8.20;99.90
14061;DHT22;7105;43.616;1.434;2023-02-01T17:31:51;8.20;99.90
14061;DHT22;7105;43.616;1.434;2023-02-01T17:34:18;8.00;99.90
14061;DHT22;7105;43.616;1.434;2023-02-01T17:36:45;7.80;99.90
14061;DHT22;7105;43.616;1.434;2023-02-01T17:39:11;7.90;99.90
14061;DHT22;7105;43.616;1.434;2023-02-01T17:41:58;8.00;99.90
14061;DHT22;7105;43.616;1.434;2023-02-01T17:44:23;7.90;99.90
14061;DHT22;7105;43.616;1.434;2023-02-01T17:46:49;7.70;99.90
14061;DHT22;7105;43.616;1.434;2023-02-01T17:49:14;7.60;99.90
14061;DHT22;7105;43.616;1.434;2023-02-01T17:51:40;7.80;99.90
14061;DHT22;7105;43.616;1.434;2023-02-01T17:54:11;7.90;99.90
14061;DHT22;7105;43.616;1.434;2023-02-01T17:56:37;7.80;99.90
14061;DHT22;7105;43.616;1.434;2023-02-01T17:59:03;7.60;99.90
14061;DHT22;7105;43.616;1.434;2023-02-01T18:01:29;7.60;99.90
14061;DHT22;7105;43.616;1.434;2023-02-01T18:03:54;7.60;99.90
14061;DHT22;7105;43.616;1.434;2023-02-01T18:06:25;7.80;99.90
14061;DHT22;7105;43.616;1.434;2023-02-01T18:08:52;7.60;99.90
14061;DHT22;7105;43.616;1.434;2023-02-01T18:11:23;7.50;99.90
14061;DHT22;7105;43.616;1.434;2023-02-01T18:13:50;7.50;99.90
14061;DHT22;7105;43.616;1.434;2023-02-01T18:16:20;7.50;99.90
14061;DHT22;7105;43.616;1.434;2023-02-01T18:18:47;7.70;99.90
14061;DHT22;7105;43.616;1.434;2023-02-01T18:21:15;7.50;99.90
14061;DHT22;7105;43.616;1.434;2023-02-01T18:23:42;7.40;99.90
14061;DHT22;7105;43.616;1.434;2023-02-01T18:26:13;7.40;99.90
14061;DHT22;7105;43.616;1.434;2023-02-01T18:28:38;7.50;99.90
14061;DHT22;7105;43.616;1.434;2023-02-01T18:31:05;7.80;99.90
14061;DHT22;7105;43.616;1.434;2023-02-01T18:33:31;7.60;99.90
14061;DHT22;7105;43.616;1.434;2023-02-01T18:35:57;7.50;99.90
14061;DHT22;7105;43.616;1.434;2023-02-01T18:38:23;7.50;99.90
14061;DHT22;7105;43.616;1.434;2023-02-01T18:40:51;7.70;99.90
14061;DHT22;7105;43.616;1.434;2023-02-01T18:43:17;7.70;99.90
14061;DHT22;7105;43.616;1.434;2023-02-01T18:45:44;7.50;99.90
14061;DHT22;7105;43.616;1.434;2023-02-01T18:48:12;7.30;99.90
14061;DHT22;7105;43.616;1.434;2023-02-01T18:50:40;7.50;99.90
14061;DHT22;7105;43.616;1.434;2023-02-01T18:53:16;7.80;99.90
14061;DHT22;7105;43.616;1.434;2023-02-01T18:55:49;7.60;99.90
14061;DHT22;7105;43.616;1.434;2023-02-01T18:58:16;7.40;99.90
14061;DHT22;7105;43.616;1.434;2023-02-01T19:00:43;7.40;99.90
14061;DHT22;7105;43.616;1.434;2023-02-01T19:03:14;7.60;99.90